createdAt,value
2023-02-14T00:00:06.637Z,6.80
2023-02-14T00:02:33.481Z,8.87
2023-02-14T00:05:01.149Z,8.87
2023-02-14T00:07:28.365Z,7.68
2023-02-14T00:09:55.901Z,14.90
2023-02-14T00:12:23.339Z,8.88
2023-02-14T00:15:25.972Z,7.30
2023-02-14T00:17:54.997Z,8.23
2023-02-14T00:20:23.286Z,6.60
2023-02-14T00:22:50.727Z,7.63
2023-02-14T00:25:18.535Z,7.85
2023-02-14T00:27:45.999Z,7.70
2023-02-14T00:30:14.392Z,7.20
2023-02-14T00:32:44.671Z,9.40
2023-02-14T00:35:11.697Z,8.37
2023-02-14T00:37:39.429Z,11.33
2023-02-14T00:40:09.594Z,12.45
2023-02-14T00:42:39.785Z,6.73
2023-02-14T00:45:07.059Z,10.07
2023-02-14T00:47:34.214Z,9.63
2023-02-14T00:50:03.126Z,9.98
2023-02-14T00:52:31.251Z,6.93
2023-02-14T00:54:58.170Z,7.97
2023-02-14T00:57:25.100Z,5.80
2023-02-14T00:59:52.012Z,13.53
2023-02-14T01:02:19.340Z,8.93
2023-02-14T01:04:46.244Z,9.35
2023-02-14T01:07:13.188Z,10.67
2023-02-14T01:09:40.457Z,9.82
2023-02-14T01:12:07.651Z,6.82
2023-02-14T01:14:36.692Z,9.43
2023-02-14T01:17:03.836Z,6.00
2023-02-14T01:19:30.968Z,8.70
2023-02-14T01:21:58.122Z,8.67
2023-02-14T01:24:26.683Z,5.90
2023-02-14T01:27:00.976Z,7.00
2023-02-14T01:29:34.457Z,8.37
2023-02-14T01:32:07.356Z,7.07
2023-02-14T01:34:34.620Z,6.63
2023-02-14T01:37:01.808Z,12.07
2023-02-14T01:39:28.866Z,6.00
2023-02-14T01:41:56.806Z,8.83
2023-02-14T01:46:58.783Z,6.87
2023-02-14T01:49:37.881Z,3.93
2023-02-14T01:52:14.451Z,6.27
2023-02-14T01:54:54.433Z,7.10
2023-02-14T01:57:58.870Z,8.07
2023-02-14T02:01:00.224Z,8.40
2023-02-14T02:03:42.645Z,7.37
2023-02-14T02:06:22.477Z,8.60
2023-02-14T02:09:18.380Z,6.63
2023-02-14T02:11:45.693Z,5.60
2023-02-14T02:14:16.373Z,5.90
2023-02-14T02:17:10.925Z,6.93
2023-02-14T02:19:59.881Z,5.93
2023-02-14T02:22:51.490Z,11.73
2023-02-14T02:25:37.275Z,6.60
2023-02-14T02:28:03.970Z,8.13
2023-02-14T02:30:43.282Z,6.33
2023-02-14T02:33:33.080Z,8.37
2023-02-14T02:36:16.313Z,4.67
2023-02-14T02:39:02.791Z,10.17
2023-02-14T02:41:38.521Z,7.50
2023-02-14T02:44:11.614Z,6.80
2023-02-14T02:46:54.076Z,9.80
2023-02-14T02:49:52.900Z,8.10
2023-02-14T02:52:50.411Z,6.30
2023-02-14T02:55:56.065Z,4.60
2023-02-14T02:58:27.500Z,7.50
2023-02-14T03:00:55.437Z,4.00
2023-02-14T03:06:10.413Z,6.23
2023-02-14T03:08:37.244Z,7.25
2023-02-14T03:11:05.535Z,4.67
2023-02-14T03:13:54.473Z,5.60
2023-02-14T03:16:27.172Z,4.20
2023-02-14T03:19:15.443Z,5.40
2023-02-14T03:21:52.229Z,6.70
2023-02-14T03:24:46.506Z,4.80
2023-02-14T03:27:27.774Z,7.13
2023-02-14T03:30:08.944Z,6.13
2023-02-14T03:33:02.354Z,4.10
2023-02-14T03:35:37.649Z,8.03
2023-02-14T03:38:11.828Z,9.10
2023-02-14T03:40:58.489Z,7.03
2023-02-14T03:43:32.470Z,12.43
2023-02-14T03:46:07.084Z,7.87
2023-02-14T03:48:36.294Z,10.77
2023-02-14T03:51:05.662Z,9.20
2023-02-14T03:53:36.891Z,5.50
2023-02-14T04:00:18.264Z,6.73
2023-02-14T04:03:19.257Z,13.33
2023-02-14T04:05:52.592Z,11.77
2023-02-14T04:11:14.180Z,11.87
2023-02-14T04:13:42.078Z,11.50
2023-02-14T04:18:55.032Z,7.85
2023-02-14T04:21:22.097Z,15.13
2023-02-14T04:23:49.350Z,5.78
2023-02-14T04:26:16.972Z,9.65
2023-02-14T04:28:44.012Z,13.82
2023-02-14T04:31:11.716Z,8.00
2023-02-14T04:33:39.570Z,6.22
2023-02-14T04:38:37.294Z,6.50
2023-02-14T04:43:49.416Z,8.77
2023-02-14T04:46:17.226Z,9.43
2023-02-14T04:51:11.737Z,8.18
2023-02-14T04:53:54.156Z,5.82
2023-02-14T04:56:21.483Z,9.10
2023-02-14T04:58:50.096Z,6.30
2023-02-14T05:01:17.202Z,10.53
2023-02-14T05:03:44.674Z,12.95
2023-02-14T05:06:11.881Z,9.38
2023-02-14T05:08:38.853Z,5.15
2023-02-14T05:11:05.919Z,8.07
2023-02-14T05:13:33.079Z,7.97
2023-02-14T05:16:00.187Z,6.63
2023-02-14T05:18:27.908Z,4.53
2023-02-14T05:20:55.618Z,8.73
2023-02-14T05:23:22.864Z,9.68
2023-02-14T05:25:51.716Z,6.38
2023-02-14T05:28:22.452Z,9.67
2023-02-14T05:30:51.807Z,9.90
2023-02-14T05:33:19.111Z,6.73
2023-02-14T05:35:46.025Z,7.20
2023-02-14T05:38:14.246Z,11.77
2023-02-14T05:40:41.859Z,9.67
2023-02-14T05:43:08.961Z,11.65
2023-02-14T05:45:36.300Z,9.55
2023-02-14T05:48:03.097Z,13.05
2023-02-14T05:50:30.158Z,8.13
2023-02-14T05:52:57.095Z,11.18
2023-02-14T05:55:25.839Z,8.30
2023-02-14T05:57:52.677Z,8.53
2023-02-14T06:00:20.184Z,10.83
2023-02-14T06:02:47.049Z,12.85
2023-02-14T06:05:15.402Z,15.60
2023-02-14T06:07:43.775Z,18.27
2023-02-14T06:10:11.123Z,9.57
2023-02-14T06:12:38.524Z,8.30
2023-02-14T06:15:05.913Z,11.25
2023-02-14T06:17:32.814Z,8.95
2023-02-14T06:19:59.534Z,14.67
2023-02-14T06:22:26.508Z,14.53
2023-02-14T06:24:53.484Z,10.40
2023-02-14T06:27:20.250Z,15.47
2023-02-14T06:29:47.102Z,9.37
2023-02-14T06:32:14.012Z,17.65
2023-02-14T06:34:41.078Z,11.53
2023-02-14T06:37:08.380Z,14.80
2023-02-14T06:39:35.295Z,17.48
2023-02-14T06:42:02.057Z,15.17
2023-02-14T06:44:28.949Z,17.17
2023-02-14T06:46:55.722Z,17.47
2023-02-14T06:49:22.612Z,18.97
2023-02-14T06:51:49.687Z,24.15
2023-02-14T06:54:16.579Z,17.17
2023-02-14T06:56:43.320Z,16.27
2023-02-14T06:59:10.029Z,15.15
2023-02-14T07:01:37.146Z,13.80
2023-02-14T07:04:04.009Z,18.80
2023-02-14T07:06:31.245Z,11.70
2023-02-14T07:08:58.019Z,16.42
2023-02-14T07:11:24.837Z,12.93
2023-02-14T07:13:51.726Z,14.48
2023-02-14T07:16:19.055Z,19.58
2023-02-14T07:18:45.993Z,11.63
2023-02-14T07:21:12.818Z,7.63
2023-02-14T07:23:40.296Z,20.13
2023-02-14T07:26:07.450Z,14.57
2023-02-14T07:28:34.328Z,13.15
2023-02-14T07:31:01.660Z,9.07
2023-02-14T07:33:29.176Z,12.23
2023-02-14T07:35:59.583Z,9.88
2023-02-14T07:38:26.780Z,8.95
2023-02-14T07:40:55.212Z,12.25
2023-02-14T07:43:22.093Z,8.40
2023-02-14T07:45:48.987Z,6.57
2023-02-14T07:48:15.939Z,6.45
2023-02-14T07:50:43.043Z,6.70
2023-02-14T07:53:10.357Z,9.88
2023-02-14T07:55:37.349Z,4.85
2023-02-14T07:58:04.591Z,9.20
2023-02-14T08:00:31.840Z,10.07
2023-02-14T08:02:58.663Z,7.82
2023-02-14T08:05:25.543Z,7.93
2023-02-14T08:07:52.579Z,19.83
2023-02-14T08:10:19.631Z,13.30
2023-02-14T08:13:01.555Z,11.50
2023-02-14T08:15:53.021Z,10.25
2023-02-14T08:18:23.264Z,20.15
2023-02-14T08:20:50.472Z,22.10
2023-02-14T08:23:18.717Z,13.50
2023-02-14T08:25:46.567Z,13.25
2023-02-14T08:28:17.045Z,20.50
2023-02-14T08:30:45.470Z,16.38
2023-02-14T08:33:12.652Z,12.32
2023-02-14T08:35:39.789Z,10.40
2023-02-14T08:38:06.881Z,14.32
2023-02-14T08:40:36.415Z,14.57
2023-02-14T08:43:07.534Z,7.78
2023-02-14T08:45:34.784Z,11.48
2023-02-14T08:48:04.845Z,6.97
2023-02-14T08:50:31.981Z,8.00
2023-02-14T08:52:58.778Z,9.17
2023-02-14T08:55:26.218Z,9.93
2023-02-14T08:57:56.116Z,14.40
2023-02-14T09:00:23.053Z,6.13
2023-02-14T09:02:53.627Z,9.23
2023-02-14T09:05:21.600Z,10.45
2023-02-14T09:10:15.155Z,9.23
2023-02-14T09:12:45.556Z,9.75
2023-02-14T09:15:13.067Z,7.05
2023-02-14T09:17:40.529Z,7.90
2023-02-14T09:20:10.108Z,7.40
2023-02-14T09:22:37.401Z,6.30
2023-02-14T09:25:05.218Z,9.20
2023-02-14T09:27:34.598Z,7.95
2023-02-14T09:30:01.869Z,7.18
2023-02-14T09:32:29.405Z,6.47
2023-02-14T09:34:56.806Z,9.13
2023-02-14T09:37:45.070Z,7.45
2023-02-14T09:40:17.466Z,8.82
2023-02-14T09:42:54.594Z,8.30
2023-02-14T09:45:30.234Z,7.75
2023-02-14T09:48:03.052Z,7.93
2023-02-14T09:50:30.673Z,8.10
2023-02-14T09:53:01.945Z,9.43
2023-02-14T09:55:42.455Z,9.52
2023-02-14T09:58:19.882Z,6.85
2023-02-14T10:00:54.495Z,11.48
2023-02-14T10:03:53.009Z,9.43
2023-02-14T10:06:22.881Z,6.93
2023-02-14T10:09:11.487Z,7.13
2023-02-14T10:11:40.190Z,11.38
2023-02-14T10:14:16.278Z,16.70
2023-02-14T10:16:46.502Z,13.52
2023-02-14T10:19:28.556Z,9.05
2023-02-14T10:22:00.975Z,12.95
2023-02-14T10:24:40.481Z,9.13
2023-02-14T10:27:15.909Z,9.55
2023-02-14T10:29:42.968Z,11.48
2023-02-14T10:32:19.709Z,11.53
2023-02-14T10:34:49.335Z,12.40
2023-02-14T10:37:26.186Z,15.93
2023-02-14T10:40:34.652Z,10.47
2023-02-14T10:43:23.714Z,9.48
2023-02-14T10:46:14.016Z,10.15
2023-02-14T10:49:18.003Z,9.82
2023-02-14T10:52:01.311Z,9.48
2023-02-14T10:54:40.123Z,9.10
2023-02-14T10:57:29.581Z,7.07
2023-02-14T11:00:22.292Z,12.45
2023-02-14T11:02:54.412Z,7.93
2023-02-14T11:05:47.173Z,9.25
2023-02-14T11:08:30.473Z,10.70
2023-02-14T11:11:24.034Z,7.63
2023-02-14T11:13:51.850Z,9.48
2023-02-14T11:16:30.518Z,14.98
2023-02-14T11:19:22.868Z,11.07
2023-02-14T11:21:52.179Z,11.10
2023-02-14T11:24:22.084Z,10.70
2023-02-14T11:26:53.380Z,11.05
2023-02-14T11:29:33.751Z,8.32
2023-02-14T11:32:26.095Z,12.82
2023-02-14T11:35:16.255Z,11.38
2023-02-14T11:38:12.589Z,12.88
2023-02-14T11:40:39.712Z,8.75
2023-02-14T11:43:21.481Z,9.82
2023-02-14T11:45:50.299Z,7.60
2023-02-14T11:48:48.856Z,12.57
2023-02-14T11:51:23.686Z,12.15
2023-02-14T11:53:56.551Z,8.82
2023-02-14T11:56:52.367Z,10.43
2023-02-14T11:59:43.108Z,7.28
2023-02-14T12:02:28.844Z,11.30
2023-02-14T12:05:21.004Z,11.20
2023-02-14T12:08:02.109Z,9.25
2023-02-14T12:10:43.457Z,9.55
2023-02-14T12:13:10.340Z,9.48
2023-02-14T12:15:52.957Z,9.50
2023-02-14T12:18:35.126Z,9.80
2023-02-14T12:21:13.221Z,7.40
2023-02-14T12:23:49.380Z,10.10
2023-02-14T12:35:22.872Z,9.38
2023-02-14T12:46:04.161Z,9.63
2023-02-14T12:48:49.070Z,8.30
2023-02-14T12:51:31.407Z,8.00
2023-02-14T12:54:31.126Z,13.57
2023-02-14T12:57:10.899Z,9.02
2023-02-14T13:00:05.588Z,10.32
2023-02-14T13:02:50.643Z,10.18
2023-02-14T13:05:41.980Z,12.35
2023-02-14T13:08:30.730Z,7.50
2023-02-14T13:11:18.536Z,9.43
2023-02-14T13:14:06.782Z,10.02
2023-02-14T13:17:11.739Z,9.30
2023-02-14T13:20:17.454Z,9.65
2023-02-14T13:22:45.398Z,9.65
2023-02-14T13:28:12.017Z,8.32
2023-02-14T13:30:41.691Z,10.80
2023-02-14T13:33:27.194Z,12.15
2023-02-14T13:36:03.643Z,10.23
2023-02-14T13:38:34.125Z,11.50
2023-02-14T13:41:02.855Z,9.68
2023-02-14T13:43:51.447Z,12.93
2023-02-14T13:46:21.362Z,10.80
2023-02-14T13:49:22.217Z,8.82
2023-02-14T13:51:51.871Z,11.95
2023-02-14T13:54:47.489Z,10.95
2023-02-14T13:57:31.829Z,8.32
2023-02-14T14:00:19.892Z,6.32
2023-02-14T14:02:49.944Z,11.60
2023-02-14T14:05:40.738Z,11.45
2023-02-14T14:08:23.528Z,10.70
2023-02-14T14:10:56.101Z,10.23
2023-02-14T14:13:48.268Z,19.70
2023-02-14T14:16:24.404Z,11.25
2023-02-14T14:18:55.809Z,14.57
2023-02-14T14:21:27.268Z,17.77
2023-02-14T14:24:23.453Z,18.00
2023-02-14T14:27:38.899Z,37.90
2023-02-14T14:30:15.825Z,85.38
2023-02-14T14:32:45.557Z,77.32
2023-02-14T14:35:26.188Z,49.85
2023-02-14T14:37:57.387Z,19.05
2023-02-14T14:40:25.868Z,13.27
2023-02-14T14:42:54.135Z,11.63
2023-02-14T14:45:29.236Z,11.82
2023-02-14T14:47:58.950Z,10.93
2023-02-14T14:50:28.928Z,10.50
2023-02-14T14:53:35.376Z,6.95
2023-02-14T14:56:02.780Z,8.90
2023-02-14T14:58:42.194Z,10.45
2023-02-14T15:01:21.419Z,10.07
2023-02-14T15:03:48.652Z,12.85
2023-02-14T15:06:55.087Z,9.20
2023-02-14T15:09:29.141Z,11.77
2023-02-14T15:12:16.547Z,8.95
2023-02-14T15:14:51.689Z,8.07
2023-02-14T15:17:21.881Z,8.68
2023-02-14T15:20:05.941Z,7.15
2023-02-14T15:22:45.017Z,10.30
2023-02-14T15:25:19.011Z,7.70
2023-02-14T15:27:48.662Z,6.70
2023-02-14T15:30:34.305Z,6.28
2023-02-14T15:33:03.927Z,8.80
2023-02-14T15:35:42.766Z,6.90
2023-02-14T15:38:12.273Z,8.68
2023-02-14T15:40:40.694Z,10.70
2023-02-14T15:43:22.041Z,9.32
2023-02-14T15:45:53.588Z,10.82
2023-02-14T15:48:29.495Z,8.32
2023-02-14T15:51:00.140Z,9.05
2023-02-14T15:53:42.417Z,8.32
2023-02-14T15:56:38.905Z,5.10
2023-02-14T15:59:36.544Z,4.63
2023-02-14T16:09:29.093Z,10.48
2023-02-14T16:11:56.422Z,8.50
2023-02-14T16:14:35.362Z,8.82
2023-02-14T16:17:12.007Z,9.65
2023-02-14T16:19:44.077Z,8.38
2023-02-14T16:22:26.025Z,8.52
2023-02-14T16:24:53.280Z,8.93
2023-02-14T16:27:20.207Z,7.70
2023-02-14T16:29:47.570Z,7.38
2023-02-14T16:32:21.258Z,4.07
2023-02-14T16:34:49.504Z,5.05
2023-02-14T17:15:38.281Z,6.75
2023-02-14T17:18:15.016Z,3.75
2023-02-14T17:20:42.440Z,6.60
2023-02-14T17:23:10.142Z,3.85
2023-02-14T17:25:37.430Z,5.28
2023-02-14T17:28:04.527Z,4.28
2023-02-14T17:30:31.785Z,5.63
2023-02-14T17:32:59.039Z,5.43
2023-02-14T17:35:26.360Z,4.88
2023-02-14T17:37:53.234Z,4.20
2023-02-14T17:40:20.235Z,7.13
2023-02-14T17:42:47.464Z,5.13
2023-02-14T17:45:15.530Z,6.40
2023-02-14T17:47:43.620Z,5.20
2023-02-14T17:52:38.481Z,4.75
2023-02-14T17:55:06.825Z,5.88
2023-02-14T17:57:34.004Z,5.35
2023-02-14T18:00:05.988Z,5.25
2023-02-14T18:02:33.463Z,3.08
2023-02-14T18:05:00.640Z,7.63
2023-02-14T18:07:27.649Z,30.38
2023-02-14T18:09:54.645Z,30.00
2023-02-14T18:12:21.544Z,18.57
2023-02-14T18:14:48.393Z,12.63
2023-02-14T18:17:15.748Z,7.97
2023-02-14T18:19:43.049Z,8.73
2023-02-14T18:22:10.579Z,5.18
2023-02-14T18:24:37.952Z,8.45
2023-02-14T18:27:06.218Z,5.85
2023-02-14T18:29:33.405Z,8.52
2023-02-14T18:32:03.790Z,4.97
2023-02-14T18:34:30.711Z,5.32
2023-02-14T18:37:02.378Z,8.93
2023-02-14T18:39:29.555Z,10.35
2023-02-14T18:42:01.063Z,10.00
2023-02-14T18:44:29.752Z,6.63
2023-02-14T18:46:57.543Z,8.57
2023-02-14T18:49:24.660Z,8.18
2023-02-14T18:51:52.331Z,9.35
2023-02-14T18:54:22.662Z,8.25
2023-02-14T18:56:49.597Z,6.65
2023-02-14T18:59:17.693Z,4.80
2023-02-14T19:01:45.930Z,4.40
2023-02-14T19:04:14.095Z,6.05
2023-02-14T19:06:42.609Z,5.05
2023-02-14T19:09:17.781Z,3.42
2023-02-14T19:11:54.059Z,7.03
2023-02-14T19:14:23.705Z,7.15
2023-02-14T19:16:53.571Z,7.55
2023-02-14T19:19:21.044Z,3.92
2023-02-14T19:21:48.493Z,6.60
2023-02-14T19:24:16.730Z,7.22
2023-02-14T19:26:53.847Z,4.82
2023-02-14T19:29:22.421Z,5.30
2023-02-14T19:31:51.422Z,7.35
2023-02-14T19:34:27.223Z,6.03
2023-02-14T19:36:57.399Z,10.02
2023-02-14T19:47:23.380Z,7.82
2023-02-14T20:17:47.583Z,4.55
2023-02-14T20:24:15.583Z,5.82
2023-02-14T20:29:55.528Z,5.20
2023-02-14T20:30:00.477Z,5.00
2023-02-14T20:33:20.412Z,7.07
2023-02-14T20:39:32.791Z,5.53
2023-02-14T20:46:40.109Z,15.73
2023-02-14T20:50:11.537Z,5.33
2023-02-14T20:52:45.347Z,7.90
2023-02-14T20:55:24.198Z,9.43
2023-02-14T20:58:32.969Z,11.40
2023-02-14T21:01:49.528Z,12.07
2023-02-14T21:04:26.875Z,11.13
2023-02-14T21:06:54.918Z,7.00
2023-02-14T21:09:35.361Z,10.32
2023-02-14T21:12:09.734Z,9.70
2023-02-14T21:14:36.917Z,6.65
2023-02-14T21:17:05.414Z,5.78
2023-02-14T21:19:32.672Z,15.35
2023-02-14T21:21:59.760Z,5.95
2023-02-14T21:24:32.727Z,9.27
2023-02-14T21:27:02.604Z,9.38
2023-02-14T21:29:29.435Z,9.15
2023-02-14T21:31:57.003Z,19.60
2023-02-14T21:34:23.998Z,14.77
2023-02-14T21:36:52.221Z,10.73
2023-02-14T21:39:21.152Z,14.00
2023-02-14T21:41:48.022Z,13.00
2023-02-14T21:44:38.208Z,9.68
2023-02-14T21:47:05.367Z,12.35
2023-02-14T21:49:54.502Z,19.73
2023-02-14T21:52:27.784Z,21.08
2023-02-14T21:54:58.065Z,9.68
2023-02-14T21:57:24.827Z,9.75
2023-02-14T21:59:52.273Z,8.68
2023-02-14T22:02:28.450Z,7.25
2023-02-14T22:04:55.522Z,12.15
2023-02-14T22:07:22.742Z,7.67
2023-02-14T22:09:52.016Z,12.50
2023-02-14T22:12:19.239Z,11.00
2023-02-14T22:14:45.989Z,6.80
2023-02-14T22:17:15.816Z,9.73
2023-02-14T22:19:46.922Z,11.48
2023-02-14T22:22:17.176Z,7.93
2023-02-14T22:24:45.939Z,8.80
2023-02-14T22:27:12.947Z,9.48
2023-02-14T22:29:50.040Z,8.18
2023-02-14T22:32:20.419Z,7.88
2023-02-14T22:34:47.635Z,11.73
2023-02-14T22:37:14.712Z,9.90
2023-02-14T22:39:41.731Z,6.03
2023-02-14T22:42:10.137Z,6.93
2023-02-14T22:44:44.509Z,10.02
2023-02-14T22:47:19.050Z,6.65
2023-02-14T22:49:48.291Z,10.18
2023-02-14T22:52:19.892Z,7.50
2023-02-14T22:54:47.824Z,9.75
2023-02-14T22:59:42.091Z,5.85
2023-02-14T23:02:10.283Z,7.50
2023-02-14T23:04:37.516Z,8.57
2023-02-14T23:07:04.553Z,7.10
2023-02-14T23:09:33.924Z,7.63
2023-02-14T23:12:01.310Z,8.95
2023-02-14T23:14:48.225Z,9.05
2023-02-14T23:17:16.392Z,7.95
2023-02-14T23:20:02.966Z,7.53
2023-02-14T23:22:33.706Z,5.07
2023-02-14T23:25:11.010Z,6.63
2023-02-14T23:27:44.228Z,7.65
2023-02-14T23:30:22.616Z,9.38
2023-02-14T23:42:34.398Z,5.63
2023-02-14T23:45:44.889Z,7.72
2023-02-14T23:52:12.614Z,5.53
